sensor_id;sensor_type;location;lat;lon;timestamp;P1;durP1;ratioP1;P2;durP2;ratioP2
60436;SDS011;46289;51.992;4.498;2024-01-30T00:01:27;17.13;;;8.82;;
60436;SDS011;46289;51.992;4.498;2024-01-30T00:03:32;17.70;;;9.23;;
60436;SDS011;46289;51.992;4.498;2024-01-30T00:05:39;18.38;;;10.02;;
60436;SDS011;46289;51.992;4.498;2024-01-30T00:07:44;20.83;;;9.30;;
60436;SDS011;46289;51.992;4.498;2024-01-30T00:09:50;20.15;;;8.90;;
60436;SDS011;46289;51.992;4.498;2024-01-30T00:11:53;15.32;;;7.95;;
60436;SDS011;46289;51.992;4.498;2024-01-30T00:13:58;14.15;;;6.78;;
60436;SDS011;46289;51.992;4.498;2024-01-30T00:16:03;12.75;;;7.40;;
60436;SDS011;46289;51.992;4.498;2024-01-30T00:18:08;14.02;;;9.05;;
60436;SDS011;46289;51.992;4.498;2024-01-30T00:20:13;14.43;;;8.27;;
60436;SDS011;46289;51.992;4.498;2024-01-30T00:22:21;15.18;;;8.35;;
60436;SDS011;46289;51.992;4.498;2024-01-30T00:24:23;14.20;;;7.63;;
60436;SDS011;46289;51.992;4.498;2024-01-30T00:26:28;14.88;;;7.53;;
60436;SDS011;46289;51.992;4.498;2024-01-30T00:28:31;19.95;;;9.55;;
60436;SDS011;46289;51.992;4.498;2024-01-30T00:30:36;13.30;;;7.88;;
60436;SDS011;46289;51.992;4.498;2024-01-30T00:32:41;15.10;;;8.35;;
60436;SDS011;46289;51.992;4.498;2024-01-30T00:34:46;16.02;;;7.82;;
60436;SDS011;46289;51.992;4.498;2024-01-30T00:36:52;14.02;;;8.20;;
60436;SDS011;46289;51.992;4.498;2024-01-30T00:39:00;15.43;;;7.85;;
60436;SDS011;46289;51.992;4.498;2024-01-30T00:41:07;14.27;;;8.05;;
60436;SDS011;46289;51.992;4.498;2024-01-30T00:43:12;15.43;;;7.65;;
60436;SDS011;46289;51.992;4.498;2024-01-30T00:45:17;14.90;;;8.15;;
60436;SDS011;46289;51.992;4.498;2024-01-30T00:47:20;15.30;;;8.40;;
60436;SDS011;46289;51.992;4.498;2024-01-30T00:49:28;15.88;;;8.45;;
60436;SDS011;46289;51.992;4.498;2024-01-30T00:51:31;15.73;;;8.32;;
60436;SDS011;46289;51.992;4.498;2024-01-30T00:53:36;16.70;;;8.05;;
60436;SDS011;46289;51.992;4.498;2024-01-30T00:55:46;14.52;;;6.82;;
60436;SDS011;46289;51.992;4.498;2024-01-30T00:57:52;12.35;;;6.63;;
60436;SDS011;46289;51.992;4.498;2024-01-30T00:59:58;15.43;;;7.80;;
60436;SDS011;46289;51.992;4.498;2024-01-30T01:02:03;13.85;;;7.57;;
60436;SDS011;46289;51.992;4.498;2024-01-30T01:04:08;13.60;;;6.70;;
60436;SDS011;46289;51.992;4.498;2024-01-30T01:06:13;13.35;;;7.35;;
60436;SDS011;46289;51.992;4.498;2024-01-30T01:08:18;15.50;;;7.70;;
60436;SDS011;46289;51.992;4.498;2024-01-30T01:10:24;17.15;;;8.48;;
60436;SDS011;46289;51.992;4.498;2024-01-30T01:12:31;14.45;;;7.78;;
60436;SDS011;46289;51.992;4.498;2024-01-30T01:14:42;13.45;;;7.88;;
60436;SDS011;46289;51.992;4.498;2024-01-30T01:16:47;15.85;;;7.93;;
60436;SDS011;46289;51.992;4.498;2024-01-30T01:18:52;13.30;;;6.95;;
60436;SDS011;46289;51.992;4.498;2024-01-30T01:20:54;15.02;;;7.93;;
60436;SDS011;46289;51.992;4.498;2024-01-30T01:23:02;13.93;;;7.28;;
60436;SDS011;46289;51.992;4.498;2024-01-30T01:25:08;13.10;;;7.10;;
60436;SDS011;46289;51.992;4.498;2024-01-30T01:27:13;14.82;;;7.43;;
60436;SDS011;46289;51.992;4.498;2024-01-30T01:29:21;15.35;;;9.10;;
60436;SDS011;46289;51.992;4.498;2024-01-30T01:31:30;16.53;;;8.80;;
60436;SDS011;46289;51.992;4.498;2024-01-30T01:33:35;14.93;;;8.13;;
60436;SDS011;46289;51.992;4.498;2024-01-30T01:35:42;14.10;;;8.00;;
60436;SDS011;46289;51.992;4.498;2024-01-30T01:37:47;13.95;;;7.55;;
60436;SDS011;46289;51.992;4.498;2024-01-30T01:39:56;14.30;;;7.72;;
60436;SDS011;46289;51.992;4.498;2024-01-30T01:42:02;12.75;;;7.43;;
60436;SDS011;46289;51.992;4.498;2024-01-30T01:44:07;15.77;;;7.38;;
60436;SDS011;46289;51.992;4.498;2024-01-30T01:46:16;14.15;;;6.93;;
60436;SDS011;46289;51.992;4.498;2024-01-30T01:48:22;14.95;;;8.50;;
60436;SDS011;46289;51.992;4.498;2024-01-30T01:50:29;12.75;;;6.80;;
60436;SDS011;46289;51.992;4.498;2024-01-30T01:52:35;15.55;;;8.50;;
60436;SDS011;46289;51.992;4.498;2024-01-30T01:54:41;13.15;;;6.78;;
60436;SDS011;46289;51.992;4.498;2024-01-30T01:56:47;14.68;;;6.72;;
60436;SDS011;46289;51.992;4.498;2024-01-30T01:58:53;12.82;;;7.55;;
60436;SDS011;46289;51.992;4.498;2024-01-30T02:00:59;13.48;;;8.02;;
60436;SDS011;46289;51.992;4.498;2024-01-30T02:03:08;14.70;;;7.25;;
60436;SDS011;46289;51.992;4.498;2024-01-30T02:05:15;15.70;;;6.85;;
60436;SDS011;46289;51.992;4.498;2024-01-30T02:07:23;12.18;;;6.95;;
60436;SDS011;46289;51.992;4.498;2024-01-30T02:09:28;14.50;;;7.55;;
60436;SDS011;46289;51.992;4.498;2024-01-30T02:11:37;11.65;;;6.32;;
60436;SDS011;46289;51.992;4.498;2024-01-30T02:13:42;15.63;;;7.32;;
60436;SDS011;46289;51.992;4.498;2024-01-30T02:15:48;14.27;;;7.07;;
60436;SDS011;46289;51.992;4.498;2024-01-30T02:17:54;12.80;;;7.20;;
60436;SDS011;46289;51.992;4.498;2024-01-30T02:20:04;14.60;;;7.38;;
60436;SDS011;46289;51.992;4.498;2024-01-30T02:22:10;14.00;;;8.05;;
60436;SDS011;46289;51.992;4.498;2024-01-30T02:24:16;14.52;;;7.57;;
60436;SDS011;46289;51.992;4.498;2024-01-30T02:26:21;14.55;;;7.68;;
60436;SDS011;46289;51.992;4.498;2024-01-30T02:28:28;13.88;;;7.78;;
60436;SDS011;46289;51.992;4.498;2024-01-30T02:30:33;14.63;;;7.82;;
60436;SDS011;46289;51.992;4.498;2024-01-30T02:32:40;14.90;;;7.45;;
60436;SDS011;46289;51.992;4.498;2024-01-30T02:34:45;12.20;;;7.35;;
60436;SDS011;46289;51.992;4.498;2024-01-30T02:36:50;16.48;;;8.10;;
60436;SDS011;46289;51.992;4.498;2024-01-30T02:39:00;15.38;;;7.75;;
60436;SDS011;46289;51.992;4.498;2024-01-30T02:41:07;16.02;;;8.52;;
60436;SDS011;46289;51.992;4.498;2024-01-30T02:43:10;14.55;;;7.13;;
60436;SDS011;46289;51.992;4.498;2024-01-30T02:45:16;15.55;;;7.07;;
60436;SDS011;46289;51.992;4.498;2024-01-30T02:47:22;13.52;;;7.28;;
60436;SDS011;46289;51.992;4.498;2024-01-30T02:49:27;13.07;;;6.95;;
60436;SDS011;46289;51.992;4.498;2024-01-30T02:51:32;17.63;;;6.93;;
60436;SDS011;46289;51.992;4.498;2024-01-30T02:53:35;13.63;;;7.43;;
60436;SDS011;46289;51.992;4.498;2024-01-30T02:55:43;12.43;;;7.30;;
60436;SDS011;46289;51.992;4.498;2024-01-30T02:57:48;15.40;;;7.13;;
60436;SDS011;46289;51.992;4.498;2024-01-30T02:59:53;11.40;;;6.95;;
60436;SDS011;46289;51.992;4.498;2024-01-30T03:01:58;12.68;;;6.97;;
60436;SDS011;46289;51.992;4.498;2024-01-30T03:04:04;13.32;;;7.22;;
60436;SDS011;46289;51.992;4.498;2024-01-30T03:06:10;12.85;;;6.85;;
60436;SDS011;46289;51.992;4.498;2024-01-30T03:08:17;17.23;;;7.93;;
60436;SDS011;46289;51.992;4.498;2024-01-30T03:10:26;18.27;;;8.65;;
60436;SDS011;46289;51.992;4.498;2024-01-30T03:12:35;14.45;;;7.60;;
60436;SDS011;46289;51.992;4.498;2024-01-30T03:14:41;14.05;;;6.68;;
60436;SDS011;46289;51.992;4.498;2024-01-30T03:16:46;13.80;;;7.45;;
60436;SDS011;46289;51.992;4.498;2024-01-30T03:18:51;15.48;;;8.93;;
60436;SDS011;46289;51.992;4.498;2024-01-30T03:20:53;14.70;;;7.80;;
60436;SDS011;46289;51.992;4.498;2024-01-30T03:22:59;15.10;;;8.13;;
60436;SDS011;46289;51.992;4.498;2024-01-30T03:25:05;14.20;;;7.40;;
60436;SDS011;46289;51.992;4.498;2024-01-30T03:27:11;13.38;;;7.63;;
60436;SDS011;46289;51.992;4.498;2024-01-30T03:29:16;12.70;;;7.75;;
60436;SDS011;46289;51.992;4.498;2024-01-30T03:31:24;14.80;;;8.23;;
60436;SDS011;46289;51.992;4.498;2024-01-30T03:33:29;16.67;;;7.50;;
60436;SDS011;46289;51.992;4.498;2024-01-30T03:35:37;12.85;;;7.25;;
60436;SDS011;46289;51.992;4.498;2024-01-30T03:37:39;14.07;;;8.20;;
60436;SDS011;46289;51.992;4.498;2024-01-30T03:39:44;12.65;;;6.82;;
60436;SDS011;46289;51.992;4.498;2024-01-30T03:41:50;16.38;;;7.18;;
60436;SDS011;46289;51.992;4.498;2024-01-30T03:43:58;14.50;;;7.75;;
60436;SDS011;46289;51.992;4.498;2024-01-30T03:46:06;16.35;;;8.77;;
60436;SDS011;46289;51.992;4.498;2024-01-30T03:48:11;13.27;;;7.65;;
60436;SDS011;46289;51.992;4.498;2024-01-30T03:50:13;14.00;;;8.32;;
60436;SDS011;46289;51.992;4.498;2024-01-30T03:52:19;16.05;;;7.53;;
60436;SDS011;46289;51.992;4.498;2024-01-30T03:54:24;16.58;;;6.70;;
60436;SDS011;46289;51.992;4.498;2024-01-30T03:56:32;13.77;;;7.05;;
60436;SDS011;46289;51.992;4.498;2024-01-30T03:58:37;13.02;;;6.85;;
60436;SDS011;46289;51.992;4.498;2024-01-30T04:00:42;15.27;;;7.55;;
60436;SDS011;46289;51.992;4.498;2024-01-30T04:02:50;13.63;;;7.22;;
60436;SDS011;46289;51.992;4.498;2024-01-30T04:04:55;16.88;;;7.28;;
60436;SDS011;46289;51.992;4.498;2024-01-30T04:07:01;17.38;;;7.30;;
60436;SDS011;46289;51.992;4.498;2024-01-30T04:09:08;12.93;;;7.25;;
60436;SDS011;46289;51.992;4.498;2024-01-30T04:11:14;15.73;;;7.30;;
60436;SDS011;46289;51.992;4.498;2024-01-30T04:13:19;15.32;;;7.32;;
60436;SDS011;46289;51.992;4.498;2024-01-30T04:15:23;15.82;;;7.68;;
60436;SDS011;46289;51.992;4.498;2024-01-30T04:17:28;16.95;;;7.72;;
60436;SDS011;46289;51.992;4.498;2024-01-30T04:19:39;17.00;;;8.07;;
60436;SDS011;46289;51.992;4.498;2024-01-30T04:21:45;15.90;;;7.68;;
60436;SDS011;46289;51.992;4.498;2024-01-30T04:23:51;14.65;;;6.85;;
60436;SDS011;46289;51.992;4.498;2024-01-30T04:25:56;17.60;;;7.65;;
60436;SDS011;46289;51.992;4.498;2024-01-30T04:28:01;15.82;;;7.45;;
60436;SDS011;46289;51.992;4.498;2024-01-30T04:30:07;16.83;;;7.28;;
60436;SDS011;46289;51.992;4.498;2024-01-30T04:32:13;13.60;;;7.00;;
60436;SDS011;46289;51.992;4.498;2024-01-30T04:34:18;11.80;;;6.38;;
60436;SDS011;46289;51.992;4.498;2024-01-30T04:36:29;12.05;;;6.63;;
60436;SDS011;46289;51.992;4.498;2024-01-30T04:38:37;18.13;;;8.55;;
60436;SDS011;46289;51.992;4.498;2024-01-30T04:40:42;14.88;;;7.68;;
60436;SDS011;46289;51.992;4.498;2024-01-30T04:42:47;15.25;;;7.07;;
60436;SDS011;46289;51.992;4.498;2024-01-30T04:44:52;13.60;;;7.68;;
60436;SDS011;46289;51.992;4.498;2024-01-30T04:46:57;11.88;;;7.55;;
60436;SDS011;46289;51.992;4.498;2024-01-30T04:49:03;12.85;;;6.97;;
60436;SDS011;46289;51.992;4.498;2024-01-30T04:51:10;15.48;;;7.47;;
60436;SDS011;46289;51.992;4.498;2024-01-30T04:53:17;13.13;;;6.97;;
60436;SDS011;46289;51.992;4.498;2024-01-30T04:55:21;13.18;;;7.30;;
60436;SDS011;46289;51.992;4.498;2024-01-30T04:57:26;13.38;;;7.85;;
60436;SDS011;46289;51.992;4.498;2024-01-30T04:59:32;14.10;;;7.22;;
60436;SDS011;46289;51.992;4.498;2024-01-30T05:01:37;14.52;;;7.28;;
60436;SDS011;46289;51.992;4.498;2024-01-30T05:03:44;15.30;;;7.55;;
60436;SDS011;46289;51.992;4.498;2024-01-30T05:05:49;12.23;;;6.40;;
60436;SDS011;46289;51.992;4.498;2024-01-30T05:07:55;16.42;;;7.20;;
60436;SDS011;46289;51.992;4.498;2024-01-30T05:10:03;14.25;;;7.07;;
60436;SDS011;46289;51.992;4.498;2024-01-30T05:12:10;12.35;;;8.15;;
60436;SDS011;46289;51.992;4.498;2024-01-30T05:14:15;14.38;;;7.60;;
60436;SDS011;46289;51.992;4.498;2024-01-30T05:16:20;13.88;;;7.90;;
60436;SDS011;46289;51.992;4.498;2024-01-30T05:18:26;15.20;;;8.50;;
60436;SDS011;46289;51.992;4.498;2024-01-30T05:20:34;16.15;;;8.20;;
60436;SDS011;46289;51.992;4.498;2024-01-30T05:22:39;14.02;;;7.15;;
60436;SDS011;46289;51.992;4.498;2024-01-30T05:24:47;15.68;;;6.82;;
60436;SDS011;46289;51.992;4.498;2024-01-30T05:26:55;14.35;;;8.50;;
60436;SDS011;46289;51.992;4.498;2024-01-30T05:29:00;14.52;;;7.07;;
60436;SDS011;46289;51.992;4.498;2024-01-30T05:31:05;15.93;;;7.47;;
60436;SDS011;46289;51.992;4.498;2024-01-30T05:33:10;15.45;;;7.38;;
60436;SDS011;46289;51.992;4.498;2024-01-30T05:35:16;12.23;;;7.00;;
60436;SDS011;46289;51.992;4.498;2024-01-30T05:37:22;14.98;;;7.68;;
60436;SDS011;46289;51.992;4.498;2024-01-30T05:39:27;13.95;;;6.85;;
60436;SDS011;46289;51.992;4.498;2024-01-30T05:41:36;15.85;;;7.57;;
60436;SDS011;46289;51.992;4.498;2024-01-30T05:43:45;13.10;;;7.20;;
60436;SDS011;46289;51.992;4.498;2024-01-30T05:45:51;14.15;;;7.22;;
60436;SDS011;46289;51.992;4.498;2024-01-30T05:49:58;18.52;;;8.02;;
60436;SDS011;46289;51.992;4.498;2024-01-30T05:52:05;16.02;;;8.23;;
60436;SDS011;46289;51.992;4.498;2024-01-30T05:54:11;14.88;;;8.18;;
60436;SDS011;46289;51.992;4.498;2024-01-30T05:56:18;15.23;;;8.43;;
60436;SDS011;46289;51.992;4.498;2024-01-30T05:58:24;16.83;;;8.35;;
60436;SDS011;46289;51.992;4.498;2024-01-30T06:00:31;17.33;;;7.35;;
60436;SDS011;46289;51.992;4.498;2024-01-30T06:02:36;12.55;;;7.28;;
60436;SDS011;46289;51.992;4.498;2024-01-30T06:04:41;16.63;;;8.30;;
60436;SDS011;46289;51.992;4.498;2024-01-30T06:06:46;13.45;;;6.95;;
60436;SDS011;46289;51.992;4.498;2024-01-30T06:08:51;13.68;;;7.93;;
60436;SDS011;46289;51.992;4.498;2024-01-30T06:10:57;15.27;;;8.40;;
60436;SDS011;46289;51.992;4.498;2024-01-30T06:13:04;13.40;;;7.07;;
60436;SDS011;46289;51.992;4.498;2024-01-30T06:15:12;15.35;;;8.02;;
60436;SDS011;46289;51.992;4.498;2024-01-30T06:17:19;16.33;;;7.03;;
60436;SDS011;46289;51.992;4.498;2024-01-30T06:19:26;17.55;;;8.02;;
60436;SDS011;46289;51.992;4.498;2024-01-30T06:21:31;15.68;;;7.70;;
60436;SDS011;46289;51.992;4.498;2024-01-30T06:23:38;16.80;;;7.80;;
60436;SDS011;46289;51.992;4.498;2024-01-30T06:25:43;15.32;;;7.15;;
60436;SDS011;46289;51.992;4.498;2024-01-30T06:27:48;14.60;;;7.30;;
60436;SDS011;46289;51.992;4.498;2024-01-30T06:29:54;16.30;;;7.18;;
60436;SDS011;46289;51.992;4.498;2024-01-30T06:31:59;12.50;;;7.90;;
60436;SDS011;46289;51.992;4.498;2024-01-30T06:34:08;14.98;;;8.05;;
60436;SDS011;46289;51.992;4.498;2024-01-30T06:36:13;15.70;;;9.00;;
60436;SDS011;46289;51.992;4.498;2024-01-30T06:38:18;17.20;;;8.68;;
60436;SDS011;46289;51.992;4.498;2024-01-30T06:40:23;13.63;;;7.68;;
60436;SDS011;46289;51.992;4.498;2024-01-30T06:42:29;15.65;;;7.88;;
60436;SDS011;46289;51.992;4.498;2024-01-30T06:44:31;14.82;;;7.60;;
60436;SDS011;46289;51.992;4.498;2024-01-30T06:46:36;14.00;;;7.60;;
60436;SDS011;46289;51.992;4.498;2024-01-30T06:48:41;14.32;;;7.38;;
60436;SDS011;46289;51.992;4.498;2024-01-30T06:50:49;14.50;;;7.32;;
60436;SDS011;46289;51.992;4.498;2024-01-30T06:52:54;14.38;;;7.78;;
60436;SDS011;46289;51.992;4.498;2024-01-30T06:54:59;16.40;;;7.47;;
60436;SDS011;46289;51.992;4.498;2024-01-30T06:57:08;16.20;;;8.13;;
60436;SDS011;46289;51.992;4.498;2024-01-30T06:59:13;17.27;;;6.95;;
60436;SDS011;46289;51.992;4.498;2024-01-30T07:01:18;13.55;;;7.25;;
60436;SDS011;46289;51.992;4.498;2024-01-30T07:03:24;14.48;;;7.30;;
60436;SDS011;46289;51.992;4.498;2024-01-30T07:05:31;13.35;;;7.40;;
60436;SDS011;46289;51.992;4.498;2024-01-30T07:07:40;12.45;;;7.25;;
60436;SDS011;46289;51.992;4.498;2024-01-30T07:09:46;14.10;;;7.88;;
60436;SDS011;46289;51.992;4.498;2024-01-30T07:11:52;17.77;;;7.15;;
60436;SDS011;46289;51.992;4.498;2024-01-30T07:14:00;14.73;;;6.78;;
60436;SDS011;46289;51.992;4.498;2024-01-30T07:16:05;17.50;;;8.18;;
60436;SDS011;46289;51.992;4.498;2024-01-30T07:18:11;15.48;;;7.47;;
60436;SDS011;46289;51.992;4.498;2024-01-30T07:20:16;13.45;;;7.20;;
60436;SDS011;46289;51.992;4.498;2024-01-30T07:22:22;15.48;;;7.30;;
60436;SDS011;46289;51.992;4.498;2024-01-30T07:24:33;15.20;;;7.88;;
60436;SDS011;46289;51.992;4.498;2024-01-30T07:26:38;15.55;;;7.50;;
60436;SDS011;46289;51.992;4.498;2024-01-30T07:28:43;14.40;;;6.65;;
60436;SDS011;46289;51.992;4.498;2024-01-30T07:30:48;17.52;;;7.75;;
60436;SDS011;46289;51.992;4.498;2024-01-30T07:32:51;19.38;;;8.15;;
60436;SDS011;46289;51.992;4.498;2024-01-30T07:34:56;14.07;;;7.07;;
60436;SDS011;46289;51.992;4.498;2024-01-30T07:37:09;15.85;;;7.75;;
60436;SDS011;46289;51.992;4.498;2024-01-30T07:39:17;13.88;;;7.15;;
60436;SDS011;46289;51.992;4.498;2024-01-30T07:41:25;12.02;;;6.90;;
60436;SDS011;46289;51.992;4.498;2024-01-30T07:43:33;15.15;;;6.18;;
60436;SDS011;46289;51.992;4.498;2024-01-30T07:45:39;19.73;;;8.25;;
60436;SDS011;46289;51.992;4.498;2024-01-30T07:47:45;15.13;;;7.60;;
60436;SDS011;46289;51.992;4.498;2024-01-30T07:49:50;14.50;;;6.78;;
60436;SDS011;46289;51.992;4.498;2024-01-30T07:51:53;16.90;;;7.40;;
60436;SDS011;46289;51.992;4.498;2024-01-30T07:53:58;22.00;;;7.90;;
60436;SDS011;46289;51.992;4.498;2024-01-30T07:56:05;15.10;;;8.40;;
60436;SDS011;46289;51.992;4.498;2024-01-30T07:58:13;16.23;;;6.53;;
60436;SDS011;46289;51.992;4.498;2024-01-30T08:00:18;14.63;;;7.45;;
60436;SDS011;46289;51.992;4.498;2024-01-30T08:02:21;16.55;;;7.50;;
60436;SDS011;46289;51.992;4.498;2024-01-30T08:04:27;15.15;;;7.68;;
60436;SDS011;46289;51.992;4.498;2024-01-30T08:06:32;12.57;;;7.15;;
60436;SDS011;46289;51.992;4.498;2024-01-30T08:08:42;16.73;;;8.05;;
60436;SDS011;46289;51.992;4.498;2024-01-30T08:10:47;15.45;;;6.68;;
60436;SDS011;46289;51.992;4.498;2024-01-30T08:12:51;13.50;;;7.00;;
60436;SDS011;46289;51.992;4.498;2024-01-30T08:14:59;14.20;;;7.82;;
60436;SDS011;46289;51.992;4.498;2024-01-30T08:17:05;13.00;;;7.15;;
60436;SDS011;46289;51.992;4.498;2024-01-30T08:19:10;17.45;;;7.95;;
60436;SDS011;46289;51.992;4.498;2024-01-30T08:21:15;19.23;;;7.13;;
60436;SDS011;46289;51.992;4.498;2024-01-30T08:23:20;16.50;;;8.32;;
60436;SDS011;46289;51.992;4.498;2024-01-30T08:25:28;14.48;;;7.63;;
60436;SDS011;46289;51.992;4.498;2024-01-30T08:27:33;17.60;;;8.23;;
60436;SDS011;46289;51.992;4.498;2024-01-30T08:29:40;16.52;;;7.75;;
60436;SDS011;46289;51.992;4.498;2024-01-30T08:31:47;15.38;;;8.60;;
60436;SDS011;46289;51.992;4.498;2024-01-30T08:33:53;15.05;;;8.07;;
60436;SDS011;46289;51.992;4.498;2024-01-30T08:35:58;14.32;;;7.05;;
60436;SDS011;46289;51.992;4.498;2024-01-30T08:38:01;15.77;;;6.80;;
60436;SDS011;46289;51.992;4.498;2024-01-30T08:40:06;15.52;;;7.55;;
60436;SDS011;46289;51.992;4.498;2024-01-30T08:42:12;16.20;;;7.40;;
60436;SDS011;46289;51.992;4.498;2024-01-30T08:44:20;15.38;;;7.82;;
60436;SDS011;46289;51.992;4.498;2024-01-30T08:46:23;16.92;;;7.55;;
60436;SDS011;46289;51.992;4.498;2024-01-30T08:48:31;16.38;;;7.00;;
60436;SDS011;46289;51.992;4.498;2024-01-30T08:50:36;12.60;;;6.20;;
60436;SDS011;46289;51.992;4.498;2024-01-30T08:52:41;22.05;;;8.48;;
60436;SDS011;46289;51.992;4.498;2024-01-30T08:54:51;18.83;;;7.88;;
60436;SDS011;46289;51.992;4.498;2024-01-30T08:56:56;18.83;;;8.65;;
60436;SDS011;46289;51.992;4.498;2024-01-30T08:59:01;16.80;;;7.75;;
60436;SDS011;46289;51.992;4.498;2024-01-30T09:01:06;15.07;;;8.07;;
60436;SDS011;46289;51.992;4.498;2024-01-30T09:03:12;20.38;;;8.00;;
60436;SDS011;46289;51.992;4.498;2024-01-30T09:05:20;16.67;;;8.05;;
60436;SDS011;46289;51.992;4.498;2024-01-30T09:07:28;15.23;;;8.52;;
60436;SDS011;46289;51.992;4.498;2024-01-30T09:09:33;16.73;;;7.28;;
60436;SDS011;46289;51.992;4.498;2024-01-30T09:11:35;15.18;;;8.05;;
60436;SDS011;46289;51.992;4.498;2024-01-30T09:13:40;17.75;;;7.38;;
60436;SDS011;46289;51.992;4.498;2024-01-30T09:15:45;13.00;;;6.93;;
60436;SDS011;46289;51.992;4.498;2024-01-30T09:17:51;14.18;;;7.88;;
60436;SDS011;46289;51.992;4.498;2024-01-30T09:22:03;13.88;;;6.40;;
60436;SDS011;46289;51.992;4.498;2024-01-30T09:24:09;13.15;;;6.65;;
60436;SDS011;46289;51.992;4.498;2024-01-30T09:26:14;14.20;;;5.80;;
60436;SDS011;46289;51.992;4.498;2024-01-30T09:28:19;13.18;;;6.80;;
60436;SDS011;46289;51.992;4.498;2024-01-30T09:30:27;13.15;;;6.07;;
60436;SDS011;46289;51.992;4.498;2024-01-30T09:32:33;15.27;;;5.78;;
60436;SDS011;46289;51.992;4.498;2024-01-30T09:34:35;14.07;;;5.93;;
60436;SDS011;46289;51.992;4.498;2024-01-30T09:36:41;11.45;;;4.80;;
60436;SDS011;46289;51.992;4.498;2024-01-30T09:38:49;13.93;;;4.15;;
60436;SDS011;46289;51.992;4.498;2024-01-30T09:40:54;14.32;;;3.75;;
60436;SDS011;46289;51.992;4.498;2024-01-30T09:42:58;11.10;;;4.18;;
60436;SDS011;46289;51.992;4.498;2024-01-30T09:45:05;9.35;;;3.78;;
60436;SDS011;46289;51.992;4.498;2024-01-30T09:47:10;15.35;;;4.75;;
60436;SDS011;46289;51.992;4.498;2024-01-30T09:49:19;8.50;;;3.60;;
60436;SDS011;46289;51.992;4.498;2024-01-30T09:51:30;15.38;;;4.85;;
60436;SDS011;46289;51.992;4.498;2024-01-30T09:53:38;11.10;;;4.07;;
60436;SDS011;46289;51.992;4.498;2024-01-30T09:55:47;12.52;;;5.43;;
60436;SDS011;46289;51.992;4.498;2024-01-30T09:57:54;10.60;;;3.63;;
60436;SDS011;46289;51.992;4.498;2024-01-30T09:59:59;10.20;;;3.42;;
60436;SDS011;46289;51.992;4.498;2024-01-30T10:02:06;10.68;;;3.33;;
60436;SDS011;46289;51.992;4.498;2024-01-30T10:04:09;7.20;;;2.65;;
60436;SDS011;46289;51.992;4.498;2024-01-30T10:06:14;4.85;;;2.65;;
60436;SDS011;46289;51.992;4.498;2024-01-30T10:08:23;10.15;;;3.03;;
60436;SDS011;46289;51.992;4.498;2024-01-30T10:10:28;10.98;;;3.28;;
60436;SDS011;46289;51.992;4.498;2024-01-30T10:12:41;10.27;;;3.55;;
60436;SDS011;46289;51.992;4.498;2024-01-30T10:14:46;8.77;;;3.20;;
60436;SDS011;46289;51.992;4.498;2024-01-30T10:16:51;7.47;;;2.88;;
60436;SDS011;46289;51.992;4.498;2024-01-30T10:18:56;9.50;;;3.03;;
60436;SDS011;46289;51.992;4.498;2024-01-30T10:20:59;6.72;;;2.72;;
60436;SDS011;46289;51.992;4.498;2024-01-30T10:23:07;8.27;;;3.10;;
60436;SDS011;46289;51.992;4.498;2024-01-30T10:25:10;5.30;;;2.83;;
60436;SDS011;46289;51.992;4.498;2024-01-30T10:27:15;8.70;;;3.20;;
60436;SDS011;46289;51.992;4.498;2024-01-30T10:29:26;5.70;;;2.63;;
60436;SDS011;46289;51.992;4.498;2024-01-30T10:31:31;5.38;;;3.33;;
60436;SDS011;46289;51.992;4.498;2024-01-30T10:33:33;5.32;;;2.50;;
60436;SDS011;46289;51.992;4.498;2024-01-30T10:35:42;4.75;;;3.15;;
60436;SDS011;46289;51.992;4.498;2024-01-30T10:37:48;5.57;;;2.83;;
60436;SDS011;46289;51.992;4.498;2024-01-30T10:39:53;5.50;;;2.80;;
60436;SDS011;46289;51.992;4.498;2024-01-30T10:42:03;6.40;;;2.65;;
60436;SDS011;46289;51.992;4.498;2024-01-30T10:44:16;5.25;;;2.70;;
60436;SDS011;46289;51.992;4.498;2024-01-30T10:48:36;7.22;;;3.22;;
60436;SDS011;46289;51.992;4.498;2024-01-30T10:50:47;4.43;;;2.45;;
60436;SDS011;46289;51.992;4.498;2024-01-30T10:53:02;8.95;;;3.08;;
60436;SDS011;46289;51.992;4.498;2024-01-30T10:55:08;7.40;;;2.75;;
60436;SDS011;46289;51.992;4.498;2024-01-30T10:57:14;8.18;;;2.95;;
60436;SDS011;46289;51.992;4.498;2024-01-30T10:59:23;6.68;;;2.67;;
60436;SDS011;46289;51.992;4.498;2024-01-30T11:01:32;5.22;;;2.47;;
60436;SDS011;46289;51.992;4.498;2024-01-30T11:03:42;4.22;;;1.90;;
60436;SDS011;46289;51.992;4.498;2024-01-30T11:05:48;6.13;;;2.60;;
60436;SDS011;46289;51.992;4.498;2024-01-30T11:07:58;4.55;;;2.17;;
60436;SDS011;46289;51.992;4.498;2024-01-30T11:10:04;5.40;;;1.73;;
60436;SDS011;46289;51.992;4.498;2024-01-30T11:12:15;4.75;;;2.08;;
60436;SDS011;46289;51.992;4.498;2024-01-30T11:14:22;5.88;;;1.70;;
60436;SDS011;46289;51.992;4.498;2024-01-30T11:16:33;1.70;;;1.42;;
60436;SDS011;46289;51.992;4.498;2024-01-30T11:18:38;5.50;;;2.10;;
60436;SDS011;46289;51.992;4.498;2024-01-30T11:20:42;5.35;;;2.55;;
60436;SDS011;46289;51.992;4.498;2024-01-30T11:22:52;5.57;;;1.95;;
60436;SDS011;46289;51.992;4.498;2024-01-30T11:24:58;5.53;;;1.70;;
60436;SDS011;46289;51.992;4.498;2024-01-30T11:27:01;3.90;;;2.88;;
60436;SDS011;46289;51.992;4.498;2024-01-30T11:29:13;3.22;;;1.42;;
60436;SDS011;46289;51.992;4.498;2024-01-30T11:31:18;5.03;;;1.60;;
60436;SDS011;46289;51.992;4.498;2024-01-30T11:33:30;3.95;;;1.75;;
60436;SDS011;46289;51.992;4.498;2024-01-30T11:35:36;3.78;;;1.63;;
60436;SDS011;46289;51.992;4.498;2024-01-30T11:37:44;8.75;;;2.20;;
60436;SDS011;46289;51.992;4.498;2024-01-30T11:39:52;5.25;;;1.90;;
60436;SDS011;46289;51.992;4.498;2024-01-30T11:41:59;4.38;;;1.92;;
60436;SDS011;46289;51.992;4.498;2024-01-30T11:44:06;5.07;;;1.95;;
60436;SDS011;46289;51.992;4.498;2024-01-30T11:46:27;2.42;;;1.88;;
60436;SDS011;46289;51.992;4.498;2024-01-30T11:48:32;3.78;;;1.70;;
60436;SDS011;46289;51.992;4.498;2024-01-30T11:50:38;4.95;;;1.85;;
60436;SDS011;46289;51.992;4.498;2024-01-30T11:52:44;7.00;;;1.90;;
60436;SDS011;46289;51.992;4.498;2024-01-30T11:54:49;4.80;;;1.67;;
60436;SDS011;46289;51.992;4.498;2024-01-30T11:56:54;3.78;;;2.40;;
60436;SDS011;46289;51.992;4.498;2024-01-30T11:58:59;5.05;;;1.70;;
60436;SDS011;46289;51.992;4.498;2024-01-30T12:01:05;3.92;;;1.80;;
60436;SDS011;46289;51.992;4.498;2024-01-30T12:03:13;6.38;;;1.63;;
60436;SDS011;46289;51.992;4.498;2024-01-30T12:05:19;7.18;;;1.52;;
60436;SDS011;46289;51.992;4.498;2024-01-30T12:07:24;4.65;;;1.77;;
60436;SDS011;46289;51.992;4.498;2024-01-30T12:09:30;4.03;;;1.90;;
60436;SDS011;46289;51.992;4.498;2024-01-30T12:11:47;7.68;;;2.10;;
60436;SDS011;46289;51.992;4.498;2024-01-30T12:13:53;4.05;;;2.00;;
60436;SDS011;46289;51.992;4.498;2024-01-30T12:15:56;6.93;;;1.48;;
60436;SDS011;46289;51.992;4.498;2024-01-30T12:18:05;3.47;;;1.38;;
60436;SDS011;46289;51.992;4.498;2024-01-30T12:20:14;4.90;;;1.60;;
60436;SDS011;46289;51.992;4.498;2024-01-30T12:22:24;3.25;;;1.67;;
60436;SDS011;46289;51.992;4.498;2024-01-30T12:24:27;4.82;;;2.28;;
60436;SDS011;46289;51.992;4.498;2024-01-30T12:26:34;4.18;;;2.03;;
60436;SDS011;46289;51.992;4.498;2024-01-30T12:28:47;4.72;;;1.67;;
60436;SDS011;46289;51.992;4.498;2024-01-30T12:30:55;5.43;;;1.92;;
60436;SDS011;46289;51.992;4.498;2024-01-30T12:33:03;3.55;;;1.92;;
60436;SDS011;46289;51.992;4.498;2024-01-30T12:35:15;3.28;;;2.00;;
60436;SDS011;46289;51.992;4.498;2024-01-30T12:37:18;1.90;;;1.77;;
60436;SDS011;46289;51.992;4.498;2024-01-30T12:39:28;7.93;;;2.70;;